Time;durP1;ratioP1;P1;durP2;ratioP2;P2;SDS_P1;SDS_P2;PMS_P1;PMS_P2;Temp;Humidity;BMP_temperature;BMP_pressure;BME280_temperature;BME280_humidity;BME280_pressure;Samples;Min_cycle;Max_cycle;Signal;HPM_P1;HPM_P2
2022/07/14 00:01:44;;;;;;;9.55;3.22;;;14.30;99.90;;;;;;4902053;28;90296;-32
2022/07/14 00:04:09;;;;;;;8.02;3.80;;;14.30;99.90;;;;;;4903053;28;88613;-32
2022/07/14 00:06:35;;;;;;;7.35;2.88;;;14.30;99.90;;;;;;4942466;23;90219;-34
2022/07/14 00:09:01;;;;;;;6.28;2.78;;;14.30;99.90;;;;;;4921395;28;90574;-30
2022/07/14 00:11:27;;;;;;;8.27;2.95;;;14.20;99.90;;;;;;4922564;28;89128;-31
2022/07/14 00:13:53;;;;;;;8.00;2.58;;;14.20;99.90;;;;;;4922691;28;89205;-31
2022/07/14 00:16:19;;;;;;;9.02;3.03;;;14.20;99.90;;;;;;4922024;28;90408;-30
2022/07/14 00:18:44;;;;;;;8.00;3.75;;;14.20;99.90;;;;;;4922155;28;89515;-32
2022/07/14 00:21:11;;;;;;;13.48;3.22;;;14.20;99.90;;;;;;4921877;28;88915;-32
2022/07/14 00:23:37;;;;;;;10.02;2.97;;;14.20;99.90;;;;;;4922604;28;89164;-30
2022/07/14 00:26:04;;;;;;;8.23;3.58;;;14.10;99.90;;;;;;4922029;28;89984;-31
2022/07/14 00:28:29;;;;;;;11.18;3.70;;;14.10;99.90;;;;;;4922413;28;89843;-35
2022/07/14 00:30:55;;;;;;;9.15;3.13;;;14.10;99.90;;;;;;4922280;28;89961;-31
2022/07/14 00:33:21;;;;;;;9.38;3.05;;;14.10;99.90;;;;;;4921382;28;90576;-33
2022/07/14 00:35:46;;;;;;;5.78;3.42;;;14.00;99.90;;;;;;4922090;28;90520;-31
2022/07/14 00:38:12;;;;;;;8.75;3.47;;;14.00;99.90;;;;;;4935811;28;90198;-33
2022/07/14 00:40:38;;;;;;;4.50;2.70;;;14.10;99.90;;;;;;4922384;28;89565;-32
2022/07/14 00:43:04;;;;;;;3.97;3.30;;;14.00;99.90;;;;;;4921765;28;88905;-31
2022/07/14 00:45:29;;;;;;;9.65;3.15;;;14.00;99.90;;;;;;4921952;28;90569;-32
2022/07/14 00:47:55;;;;;;;8.55;3.15;;;13.90;99.90;;;;;;4922217;28;89451;-30
2022/07/14 00:50:21;;;;;;;8.70;3.38;;;13.90;99.90;;;;;;4921530;28;91648;-30
2022/07/14 00:52:49;;;;;;;11.35;3.13;;;13.90;99.90;;;;;;4922671;28;89132;-35
2022/07/14 00:55:16;;;;;;;6.13;3.25;;;13.80;99.90;;;;;;4921351;28;90522;-32
2022/07/14 00:57:42;;;;;;;7.85;2.83;;;13.80;99.90;;;;;;4920531;28;89467;-32
2022/07/14 01:00:11;;;;;;;10.35;5.03;;;13.70;99.90;;;;;;4921085;28;90259;-33
2022/07/14 01:02:37;;;;;;;7.57;3.45;;;13.70;99.90;;;;;;4921386;28;89967;-31
2022/07/14 01:05:05;;;;;;;10.23;3.20;;;13.60;99.90;;;;;;4922193;28;90408;-31
2022/07/14 01:07:31;;;;;;;9.80;3.23;;;13.60;99.90;;;;;;4920745;28;89703;-33
2022/07/14 01:09:56;;;;;;;5.82;3.42;;;13.60;99.90;;;;;;4921542;28;89813;-34
2022/07/14 01:12:22;;;;;;;7.88;4.00;;;13.50;99.90;;;;;;4921742;28;88839;-34
2022/07/14 01:14:47;;;;;;;6.85;3.55;;;13.50;99.90;;;;;;4921427;28;90021;-36
2022/07/14 01:17:13;;;;;;;10.75;3.60;;;13.50;99.90;;;;;;4921438;28;89489;-31
2022/07/14 01:19:39;;;;;;;6.15;4.13;;;13.40;99.90;;;;;;4921190;28;89559;-29
2022/07/14 01:22:04;;;;;;;5.75;3.00;;;13.40;99.90;;;;;;4920899;28;88012;-29
2022/07/14 01:24:30;;;;;;;11.50;3.55;;;13.40;99.90;;;;;;4921098;28;90387;-31
2022/07/14 01:26:56;;;;;;;4.30;3.88;;;13.30;99.90;;;;;;4921715;28;90022;-32
2022/07/14 01:29:22;;;;;;;9.57;3.88;;;13.30;99.90;;;;;;4921619;28;89476;-31
2022/07/14 01:31:48;;;;;;;7.80;3.55;;;13.30;99.90;;;;;;4921083;28;89632;-31
2022/07/14 01:34:14;;;;;;;10.15;3.33;;;13.20;99.90;;;;;;4920803;28;88998;-31
2022/07/14 01:36:40;;;;;;;4.07;2.65;;;13.20;99.90;;;;;;4920892;28;89518;-31
2022/07/14 01:39:06;;;;;;;7.63;3.63;;;13.10;99.90;;;;;;4921343;28;89466;-30
2022/07/14 01:41:33;;;;;;;7.18;3.85;;;13.20;99.90;;;;;;4921772;28;88808;-34
2022/07/14 01:43:59;;;;;;;7.30;3.08;;;13.10;99.90;;;;;;4920786;28;91246;-36
2022/07/14 01:46:24;;;;;;;8.00;3.40;;;13.10;99.90;;;;;;4920275;28;90953;-35
2022/07/14 01:48:50;;;;;;;6.88;3.63;;;13.10;99.90;;;;;;4921239;28;90242;-32
2022/07/14 01:51:16;;;;;;;8.23;3.33;;;13.10;99.90;;;;;;4920744;28;88633;-33
2022/07/14 01:53:41;;;;;;;10.57;3.63;;;13.10;99.90;;;;;;4920756;28;90227;-31
2022/07/14 01:56:08;;;;;;;6.28;3.40;;;13.00;99.90;;;;;;4920476;28;89718;-30
2022/07/14 01:58:34;;;;;;;5.13;2.50;;;13.00;99.90;;;;;;4920570;28;89720;-35
2022/07/14 02:03:45;;;;;;;5.50;3.30;;;12.90;99.90;;;;;;4920001;28;89348;-33
2022/07/14 02:06:11;;;;;;;8.50;3.35;;;12.90;99.90;;;;;;4920543;28;89807;-30
2022/07/14 02:08:37;;;;;;;8.63;3.72;;;12.90;99.90;;;;;;4919630;28;90963;-32
2022/07/14 02:13:47;;;;;;;11.23;2.92;;;12.90;99.90;;;;;;4920211;28;90665;-31
2022/07/14 02:16:12;;;;;;;7.10;2.65;;;12.90;99.90;;;;;;4919554;28;89787;-33
2022/07/14 02:18:38;;;;;;;8.43;3.88;;;12.80;99.90;;;;;;4920654;28;89284;-32
2022/07/14 02:21:04;;;;;;;18.35;5.25;;;12.80;99.90;;;;;;4920641;28;87917;-32
2022/07/14 02:23:29;;;;;;;12.35;3.72;;;12.80;99.90;;;;;;4920690;28;91622;-33
2022/07/14 02:25:55;;;;;;;9.75;3.72;;;12.80;99.90;;;;;;4927499;28;89337;-31
2022/07/14 02:28:20;;;;;;;7.47;3.63;;;12.80;99.90;;;;;;4939773;28;89928;-31
2022/07/14 02:30:46;;;;;;;7.60;3.25;;;12.70;99.90;;;;;;4940150;28;89085;-31
2022/07/14 02:33:12;;;;;;;9.93;4.32;;;12.70;99.90;;;;;;4939282;28;88922;-30
2022/07/14 02:35:38;;;;;;;9.43;4.03;;;12.60;99.90;;;;;;4939661;28;90898;-31
2022/07/14 02:38:04;;;;;;;5.05;3.80;;;12.70;99.90;;;;;;4939462;28;90644;-31
2022/07/14 02:40:29;;;;;;;8.95;3.85;;;12.60;99.90;;;;;;4940118;28;89082;-31
2022/07/14 02:42:55;;;;;;;3.47;2.92;;;12.60;99.90;;;;;;4939790;28;90532;-31
2022/07/14 02:45:21;;;;;;;10.00;3.42;;;12.60;99.90;;;;;;4939316;28;90070;-33
2022/07/14 02:47:46;;;;;;;5.22;3.83;;;12.60;99.90;;;;;;4939767;28;89532;-34
2022/07/14 02:50:12;;;;;;;12.38;3.67;;;12.60;99.90;;;;;;4939138;28;89037;-30
2022/07/14 02:52:38;;;;;;;6.10;3.47;;;12.60;99.90;;;;;;4938621;28;90274;-31
2022/07/14 02:55:06;;;;;;;4.18;2.55;;;12.50;99.90;;;;;;4939993;28;89610;-32
2022/07/14 02:57:31;;;;;;;7.30;3.10;;;12.50;99.90;;;;;;4939776;28;89516;-32
2022/07/14 02:59:58;;;;;;;6.55;3.97;;;12.50;99.90;;;;;;4939577;28;89873;-33
2022/07/14 03:02:24;;;;;;;10.15;3.75;;;12.50;99.90;;;;;;4939115;28;90929;-30
2022/07/14 03:04:50;;;;;;;11.02;4.32;;;12.40;99.90;;;;;;4939616;28;89719;-30
2022/07/14 03:07:15;;;;;;;8.05;4.28;;;12.40;99.90;;;;;;4939133;28;88530;-32
2022/07/14 03:09:41;;;;;;;6.75;4.80;;;12.40;99.90;;;;;;4939702;28;87692;-32
2022/07/14 03:12:07;;;;;;;6.32;4.38;;;12.40;99.90;;;;;;4938736;28;90312;-31
2022/07/14 03:14:32;;;;;;;7.72;4.00;;;12.40;99.90;;;;;;4939122;28;89431;-31
2022/07/14 03:16:58;;;;;;;8.43;4.40;;;12.40;99.90;;;;;;4938951;28;89659;-30
2022/07/14 03:19:23;;;;;;;7.43;4.05;;;12.40;99.90;;;;;;4939893;28;88220;-31
2022/07/14 03:21:49;;;;;;;8.27;4.70;;;12.40;99.90;;;;;;4942453;28;89692;-31
2022/07/14 03:24:14;;;;;;;10.10;3.42;;;12.40;99.90;;;;;;4941571;28;90633;-32
2022/07/14 03:26:40;;;;;;;10.65;4.72;;;12.40;99.90;;;;;;4941827;28;90518;-33
2022/07/14 03:29:07;;;;;;;6.88;4.47;;;12.40;99.90;;;;;;4942802;28;88400;-31
2022/07/14 03:31:33;;;;;;;9.98;3.95;;;12.40;99.90;;;;;;4942750;28;90007;-31
2022/07/14 03:33:59;;;;;;;11.52;4.28;;;12.40;99.90;;;;;;4941751;28;90490;-34
2022/07/14 03:36:25;;;;;;;8.43;4.15;;;12.40;99.90;;;;;;4942334;28;89638;-33
2022/07/14 03:38:51;;;;;;;6.88;4.05;;;12.40;99.90;;;;;;4942049;28;89233;-33
2022/07/14 03:41:16;;;;;;;11.45;4.65;;;12.40;99.90;;;;;;4942106;28;90455;-32
2022/07/14 03:43:43;;;;;;;16.83;4.97;;;12.40;99.90;;;;;;4942753;28;89504;-31
2022/07/14 03:46:09;;;;;;;13.55;4.95;;;12.40;99.90;;;;;;4941926;28;88470;-31
2022/07/14 03:48:35;;;;;;;9.57;5.15;;;12.40;99.90;;;;;;4941423;28;89800;-36
2022/07/14 03:51:01;;;;;;;8.55;4.75;;;12.40;99.90;;;;;;4941664;28;90175;-32
2022/07/14 03:53:29;;;;;;;14.75;5.07;;;12.30;99.90;;;;;;4941724;28;89624;-31
2022/07/14 03:55:55;;;;;;;7.20;3.47;;;12.30;99.90;;;;;;4942301;28;89769;-35
2022/07/14 03:58:21;;;;;;;8.25;4.00;;;12.30;99.90;;;;;;4942629;28;88056;-31
2022/07/14 04:00:46;;;;;;;7.28;3.75;;;12.30;99.90;;;;;;4941429;28;90394;-30
2022/07/14 04:03:12;;;;;;;14.23;4.40;;;12.40;99.90;;;;;;4941454;28;89636;-32
2022/07/14 04:05:37;;;;;;;9.20;4.43;;;12.30;99.90;;;;;;4941347;28;89431;-33
2022/07/14 04:08:03;;;;;;;15.55;4.18;;;12.30;99.90;;;;;;4941954;28;88949;-31
2022/07/14 04:10:29;;;;;;;17.35;4.85;;;12.40;99.90;;;;;;4941525;28;90150;-30
2022/07/14 04:12:56;;;;;;;6.90;4.28;;;12.40;99.90;;;;;;4941017;28;90556;-33
2022/07/14 04:15:23;;;;;;;8.63;4.32;;;12.40;99.90;;;;;;4941435;28;90601;-31
2022/07/14 04:17:49;;;;;;;6.40;3.78;;;12.40;99.90;;;;;;4941937;28;88578;-31
2022/07/14 04:20:16;;;;;;;11.38;5.18;;;12.40;99.90;;;;;;4940989;28;90464;-32
2022/07/14 04:22:42;;;;;;;8.88;4.57;;;12.40;99.90;;;;;;4941746;28;88509;-31
2022/07/14 04:25:09;;;;;;;7.80;4.15;;;12.40;99.90;;;;;;4941307;28;89738;-32
2022/07/14 04:27:35;;;;;;;6.28;3.72;;;12.50;99.90;;;;;;4941247;28;88901;-32
2022/07/14 04:30:00;;;;;;;6.28;4.70;;;12.50;99.90;;;;;;4941418;28;90269;-33
2022/07/14 04:32:27;;;;;;;8.43;4.10;;;12.50;99.90;;;;;;4940550;28;90199;-32
2022/07/14 04:34:52;;;;;;;7.85;4.45;;;12.50;99.90;;;;;;4941489;28;90233;-34
2022/07/14 04:37:18;;;;;;;6.15;3.50;;;12.60;99.90;;;;;;4941285;28;90075;-32
2022/07/14 04:39:44;;;;;;;7.25;3.95;;;12.60;99.90;;;;;;4941418;28;89518;-34
2022/07/14 04:42:09;;;;;;;7.88;3.88;;;12.70;99.90;;;;;;4941546;28;89666;-30
2022/07/14 04:44:35;;;;;;;3.75;3.42;;;12.70;99.90;;;;;;4941030;28;89678;-30
2022/07/14 04:47:00;;;;;;;7.68;4.35;;;12.70;99.90;;;;;;4941473;28;89345;-34
2022/07/14 04:52:10;;;;;;;14.25;4.30;;;12.80;99.90;;;;;;4940756;28;89679;-34
2022/07/14 04:54:36;;;;;;;15.90;4.35;;;13.00;99.90;;;;;;4940872;28;89539;-33
2022/07/14 04:57:03;;;;;;;10.10;3.80;;;13.30;99.90;;;;;;4941010;28;88148;-32
2022/07/14 04:59:30;;;;;;;8.85;3.80;;;13.50;99.90;;;;;;4941452;28;91427;-30
2022/07/14 05:01:55;;;;;;;7.13;3.55;;;13.70;99.90;;;;;;4940640;28;90326;-31
2022/07/14 05:04:22;;;;;;;8.45;3.35;;;13.90;99.90;;;;;;4940069;28;90737;-31
2022/07/14 05:06:49;;;;;;;8.57;3.00;;;14.10;99.90;;;;;;4941360;28;89027;-31
2022/07/14 05:09:16;;;;;;;9.43;3.15;;;14.30;99.90;;;;;;4940725;28;91420;-31
2022/07/14 05:11:42;;;;;;;8.13;4.35;;;14.40;99.90;;;;;;4941094;28;90638;-31
2022/07/14 05:14:08;;;;;;;10.30;5.35;;;14.60;99.90;;;;;;4940530;28;88908;-32
2022/07/14 05:16:33;;;;;;;7.85;3.88;;;14.70;99.90;;;;;;4941098;28;88170;-31
2022/07/14 05:18:59;;;;;;;6.45;3.28;;;14.80;99.90;;;;;;4940810;28;89789;-30
2022/07/14 05:21:26;;;;;;;6.25;3.50;;;14.90;99.90;;;;;;4940524;28;89618;-33
2022/07/14 05:23:52;;;;;;;12.98;3.70;;;15.00;99.90;;;;;;4940659;28;89834;-34
2022/07/14 05:26:17;;;;;;;5.90;2.97;;;15.20;99.90;;;;;;4940606;28;90364;-30
2022/07/14 05:28:43;;;;;;;6.10;3.25;;;15.30;99.90;;;;;;4940104;28;90557;-31
2022/07/14 05:31:09;;;;;;;24.35;5.82;;;15.40;99.90;;;;;;4940115;28;88467;-34
2022/07/14 05:33:35;;;;;;;3.42;3.13;;;15.50;99.90;;;;;;4940436;28;89486;-33
2022/07/14 05:36:02;;;;;;;8.65;3.13;;;15.60;99.90;;;;;;4940348;28;88107;-34
2022/07/14 05:38:28;;;;;;;3.42;2.53;;;15.80;99.90;;;;;;4940513;28;89813;-33
2022/07/14 05:40:54;;;;;;;5.18;3.17;;;15.90;99.90;;;;;;4940818;28;89485;-30
2022/07/14 05:43:20;;;;;;;9.35;3.50;;;16.10;99.90;;;;;;4939710;28;89069;-31
2022/07/14 05:45:46;;;;;;;4.68;3.38;;;16.20;99.90;;;;;;4940915;28;89402;-34
2022/07/14 05:48:11;;;;;;;7.30;2.72;;;16.30;99.90;;;;;;4939992;28;91835;-31
2022/07/14 05:50:37;;;;;;;5.75;3.13;;;16.50;99.90;;;;;;4939917;28;90744;-31
2022/07/14 05:53:03;;;;;;;2.72;2.42;;;16.60;99.90;;;;;;4939921;28;92098;-31
2022/07/14 05:55:28;;;;;;;13.57;2.92;;;16.90;99.90;;;;;;4939810;28;88039;-33
2022/07/14 05:57:54;;;;;;;4.25;3.10;;;17.00;99.90;;;;;;4940642;28;90493;-32
2022/07/14 06:00:20;;;;;;;7.07;3.65;;;17.20;99.90;;;;;;4939712;28;89540;-33
2022/07/14 06:02:45;;;;;;;3.88;2.60;;;17.30;99.90;;;;;;4940555;28;89663;-33
2022/07/14 06:05:12;;;;;;;3.67;2.20;;;17.40;99.90;;;;;;4940261;28;88918;-31
2022/07/14 06:07:38;;;;;;;8.85;3.05;;;17.60;99.90;;;;;;4939866;28;90054;-32
2022/07/14 06:10:05;;;;;;;3.83;2.08;;;17.70;99.90;;;;;;4940276;28;89328;-31
2022/07/14 06:12:37;;;;;;;3.88;1.80;;;17.80;99.90;;;;;;4940124;28;89353;-33
2022/07/14 06:15:05;;;;;;;4.13;2.40;;;18.00;99.90;;;;;;4940000;28;89230;-32
2022/07/14 06:17:31;;;;;;;7.00;2.83;;;18.20;99.90;;;;;;4939893;28;89312;-32
2022/07/14 06:20:00;;;;;;;6.03;2.10;;;18.30;99.90;;;;;;4930287;28;90491;-31
2022/07/14 06:22:26;;;;;;;3.72;1.52;;;18.50;99.90;;;;;;4935888;28;89531;-31
2022/07/14 06:24:52;;;;;;;4.40;2.20;;;18.60;99.90;;;;;;4940887;28;89850;-32
2022/07/14 06:27:18;;;;;;;6.20;2.78;;;18.70;99.90;;;;;;4939819;28;90201;-32
2022/07/14 06:29:43;;;;;;;2.95;2.40;;;18.90;99.90;;;;;;4938811;28;89952;-35
2022/07/14 06:32:09;;;;;;;5.80;1.73;;;19.00;99.90;;;;;;4939553;28;90191;-32
2022/07/14 06:34:35;;;;;;;4.13;1.73;;;19.00;99.90;;;;;;4935831;28;89578;-35
2022/07/14 06:37:00;;;;;;;4.25;2.25;;;19.00;99.90;;;;;;4940014;28;90220;-34
2022/07/14 06:39:26;;;;;;;6.25;1.98;;;19.10;99.90;;;;;;4938615;28;90927;-30
2022/07/14 06:41:51;;;;;;;3.20;1.95;;;19.20;99.90;;;;;;4940225;28;90071;-30
2022/07/14 06:44:17;;;;;;;3.05;1.73;;;19.20;99.90;;;;;;4939809;28;89174;-32
2022/07/14 06:46:43;;;;;;;4.20;1.33;;;19.20;99.90;;;;;;4935972;28;90435;-33
2022/07/14 06:49:09;;;;;;;5.88;1.67;;;19.10;99.90;;;;;;4918959;28;89805;-32
2022/07/14 06:51:34;;;;;;;3.92;1.65;;;19.10;99.90;;;;;;4901527;28;89532;-32
2022/07/14 06:54:00;;;;;;;2.83;1.42;;;19.00;99.90;;;;;;4919902;28;88602;-33
2022/07/14 06:56:26;;;;;;;7.28;2.03;;;19.00;99.90;;;;;;4922261;28;89723;-34
2022/07/14 06:58:52;;;;;;;7.45;1.90;;;18.80;99.90;;;;;;4921182;28;89554;-31
2022/07/14 07:01:18;;;;;;;7.43;1.77;;;18.80;99.90;;;;;;4921181;28;89771;-31
2022/07/14 07:03:43;;;;;;;2.78;1.38;;;18.70;99.90;;;;;;4920182;28;90378;-33
2022/07/14 07:08:53;;;;;;;3.60;1.88;;;18.90;99.90;;;;;;4927989;28;89649;-31
2022/07/14 07:11:19;;;;;;;9.57;2.03;;;19.30;99.90;;;;;;4926868;28;89323;-31
2022/07/14 07:13:45;;;;;;;2.67;1.65;;;19.60;99.90;;;;;;4919849;28;88226;-31
2022/07/14 07:16:10;;;;;;;3.45;1.10;;;19.40;99.90;;;;;;4920074;28;90139;-33
2022/07/14 07:18:37;;;;;;;4.20;1.65;;;19.20;99.90;;;;;;4920835;28;90815;-31
2022/07/14 07:21:03;;;;;;;3.08;1.23;;;19.00;99.90;;;;;;4938119;28;90024;-31
2022/07/14 07:23:32;;;;;;;2.60;1.52;;;19.10;99.90;;;;;;4940970;28;89782;-32
2022/07/14 07:25:58;;;;;;;3.15;1.50;;;19.20;99.90;;;;;;4940530;28;90404;-33
2022/07/14 07:28:24;;;;;;;5.68;1.35;;;19.20;99.90;;;;;;4938680;28;91990;-32
2022/07/14 07:30:49;;;;;;;5.20;1.40;;;19.40;99.90;;;;;;4940001;28;90220;-32
2022/07/14 07:33:15;;;;;;;3.88;1.90;;;19.70;99.90;;;;;;4940118;28;89488;-35
2022/07/14 07:35:45;;;;;;;3.22;1.40;;;19.80;99.90;;;;;;4940182;28;90293;-33
2022/07/14 07:38:11;;;;;;;1.88;1.10;;;20.00;99.90;;;;;;4940987;28;89539;-31
2022/07/14 07:40:36;;;;;;;6.60;1.60;;;20.20;99.90;;;;;;4942396;28;89460;-33
2022/07/14 07:43:02;;;;;;;1.67;1.08;;;20.10;99.90;;;;;;4942321;28;89711;-30
2022/07/14 07:45:28;;;;;;;4.10;1.55;;;19.90;99.90;;;;;;4941888;28;90330;-35
2022/07/14 07:47:53;;;;;;;7.07;1.30;;;20.10;99.90;;;;;;4941105;28;89545;-32
2022/07/14 07:50:19;;;;;;;3.28;1.38;;;20.30;99.90;;;;;;4941401;28;90363;-35
2022/07/14 07:52:44;;;;;;;2.05;1.13;;;20.50;99.90;;;;;;4941154;28;88083;-31
2022/07/14 07:55:11;;;;;;;8.73;1.85;;;20.70;99.90;;;;;;4941638;28;90548;-32
2022/07/14 07:57:37;;;;;;;5.72;1.55;;;21.10;99.90;;;;;;4941862;28;90059;-32
2022/07/14 08:00:04;;;;;;;2.53;1.17;;;21.40;99.90;;;;;;4941805;28;89630;-33
2022/07/14 08:02:30;;;;;;;4.67;1.00;;;21.30;99.90;;;;;;4941969;28;88451;-29
2022/07/14 08:04:56;;;;;;;2.30;1.20;;;21.00;99.90;;;;;;4942292;28;90638;-32
2022/07/14 08:07:21;;;;;;;4.00;1.55;;;20.90;99.90;;;;;;4940384;28;89811;-31
2022/07/14 08:09:47;;;;;;;4.65;1.65;;;20.90;99.90;;;;;;4942138;28;88819;-32
2022/07/14 08:12:13;;;;;;;3.33;1.50;;;21.00;99.90;;;;;;4942170;28;88392;-29
2022/07/14 08:14:48;;;;;;;2.08;1.30;;;21.20;99.90;;;;;;4941448;28;89915;-31
2022/07/14 08:17:14;;;;;;;1.88;1.50;;;21.20;99.90;;;;;;4941122;28;90925;-35
2022/07/14 08:19:39;;;;;;;0.90;0.70;;;20.90;99.90;;;;;;4941489;28;90418;-31
2022/07/14 08:22:05;;;;;;;1.45;1.05;;;20.60;99.90;;;;;;4941892;28;89772;-34
2022/07/14 08:24:31;;;;;;;4.03;1.35;;;20.40;99.90;;;;;;4941483;28;90397;-32
2022/07/14 08:26:57;;;;;;;2.38;1.17;;;20.30;99.90;;;;;;4940480;28;90249;-31
2022/07/14 08:29:22;;;;;;;3.08;1.33;;;20.60;99.90;;;;;;4941292;28;89230;-33
2022/07/14 08:31:49;;;;;;;1.98;1.33;;;21.00;99.90;;;;;;4941242;28;88732;-34
2022/07/14 08:34:14;;;;;;;1.48;0.95;;;21.10;99.90;;;;;;4941723;28;90436;-34
2022/07/14 08:36:40;;;;;;;6.68;1.35;;;21.00;99.90;;;;;;4941379;28;90020;-32
2022/07/14 08:39:05;;;;;;;4.47;1.73;;;20.90;99.90;;;;;;4941107;28;88903;-34
2022/07/14 08:41:36;;;;;;;2.58;1.17;;;20.50;99.90;;;;;;4941490;28;88695;-30
2022/07/14 08:44:03;;;;;;;1.80;1.50;;;20.10;99.90;;;;;;4941235;28;89884;-33
2022/07/14 08:46:31;;;;;;;4.03;1.10;;;20.00;99.90;;;;;;4941043;28;90184;-30
2022/07/14 08:48:56;;;;;;;4.20;1.10;;;20.30;99.90;;;;;;4940352;28;89689;-33
2022/07/14 08:51:24;;;;;;;1.52;1.08;;;20.70;99.90;;;;;;4941499;28;87663;-32
2022/07/14 08:53:51;;;;;;;3.63;1.77;;;21.10;99.90;;;;;;4941562;28;90029;-32
2022/07/14 08:56:17;;;;;;;2.60;0.80;;;21.40;99.90;;;;;;4940897;28;89266;-31
2022/07/14 08:58:44;;;;;;;1.50;1.15;;;21.70;99.90;;;;;;4946450;28;90856;-30
2022/07/14 09:01:10;;;;;;;2.53;1.13;;;22.00;99.90;;;;;;4954889;28;87683;-32
2022/07/14 09:03:36;;;;;;;1.63;0.82;;;22.20;99.90;;;;;;4954042;28;90183;-33
2022/07/14 09:06:04;;;;;;;2.10;1.15;;;22.20;99.90;;;;;;4954007;28;90728;-30
2022/07/14 09:08:30;;;;;;;;;;;21.90;99.90;;;;;;4955320;28;89139;-31
2022/07/14 09:10:55;;;;;;;3.75;1.42;;;21.70;99.90;;;;;;4956382;28;87494;-32
2022/07/14 09:13:22;;;;;;;3.40;1.27;;;21.50;99.90;;;;;;4953877;28;89065;-32
2022/07/14 09:15:48;;;;;;;1.67;1.20;;;21.30;99.90;;;;;;4954506;28;89574;-32
2022/07/14 09:18:27;;;;;;;15.52;1.35;;;21.40;99.90;;;;;;4953860;28;89353;-32
2022/07/14 09:20:54;;;;;;;1.00;0.95;;;21.50;99.90;;;;;;4954748;28;88085;-32
2022/07/14 09:23:31;;;;;;;1.53;1.33;;;21.40;99.90;;;;;;4949259;28;90382;-34
2022/07/14 09:26:16;;;;;;;6.23;1.77;;;21.30;99.90;;;;;;4941063;28;89618;-32
2022/07/14 09:28:44;;;;;;;0.93;0.82;;;21.30;99.90;;;;;;4940349;28;89081;-31
2022/07/14 09:31:23;;;;;;;25.27;4.75;;;21.30;99.90;;;;;;4940095;28;89373;-33
2022/07/14 09:33:50;;;;;;;1.42;0.95;;;21.30;99.90;;;;;;4940527;28;90718;-32
2022/07/14 09:36:26;;;;;;;6.93;1.85;;;21.40;99.90;;;;;;4941137;28;89312;-34
2022/07/14 09:38:56;;;;;;;2.65;1.17;;;21.50;99.90;;;;;;4934601;28;90342;-31
2022/07/14 09:41:21;;;;;;;1.88;1.20;;;21.50;99.90;;;;;;4927101;28;88037;-31
2022/07/14 09:44:13;;;;;;;2.35;0.77;;;21.40;99.90;;;;;;4920826;28;90546;-31
2022/07/14 09:46:43;;;;;;;0.90;0.70;;;21.40;99.90;;;;;;4921064;28;89707;-31
2022/07/14 09:49:09;;;;;;;2.75;0.93;;;21.30;99.90;;;;;;4921194;28;89669;-31
2022/07/14 09:51:54;;;;;;;6.03;1.40;;;21.30;99.90;;;;;;4920685;28;88964;-32
2022/07/14 09:54:43;;;;;;;1.30;0.90;;;21.20;99.90;;;;;;4919539;28;91734;-32
2022/07/14 09:57:12;;;;;;;1.67;1.13;;;21.20;99.90;;;;;;4919863;28;90770;-33
2022/07/14 10:00:08;;;;;;;0.90;0.88;;;21.20;99.90;;;;;;4921037;28;89762;-33
2022/07/14 10:02:37;;;;;;;6.03;2.38;;;21.30;99.90;;;;;;4934794;28;88843;-33
2022/07/14 10:05:07;;;;;;;4.22;1.30;;;21.40;99.90;;;;;;4933789;28;90190;-33
2022/07/14 10:07:35;;;;;;;2.10;1.40;;;21.40;99.90;;;;;;4933618;28;89633;-30
2022/07/14 10:10:15;;;;;;;3.78;1.15;;;21.30;99.90;;;;;;4934232;28;89380;-33
2022/07/14 10:12:42;;;;;;;3.70;1.63;;;21.30;99.90;;;;;;4934284;28;87763;-31
2022/07/14 10:15:13;;;;;;;4.00;1.20;;;21.10;99.90;;;;;;4933930;28;90273;-30
2022/07/14 10:17:40;;;;;;;1.08;0.88;;;21.00;99.90;;;;;;4933791;28;89365;-30
2022/07/14 10:20:11;;;;;;;2.38;1.60;;;21.00;99.90;;;;;;4933418;28;89302;-30
2022/07/14 10:22:38;;;;;;;1.92;1.02;;;21.00;99.90;;;;;;4932055;28;88074;-33
2022/07/14 10:25:05;;;;;;;6.13;1.27;;;21.00;99.90;;;;;;4929665;28;92550;-31
2022/07/14 10:27:32;;;;;;;1.73;1.40;;;20.90;99.90;;;;;;4928438;28;90935;-31
2022/07/14 10:29:58;;;;;;;2.67;1.05;;;20.90;99.90;;;;;;4918440;28;89495;-32
2022/07/14 10:32:57;;;;;;;2.45;0.95;;;20.80;99.90;;;;;;4935851;28;89211;-34
2022/07/14 10:35:44;;;;;;;0.80;0.75;;;20.80;99.90;;;;;;4934635;28;89353;-30
2022/07/14 10:38:31;;;;;;;3.95;1.23;;;20.70;99.90;;;;;;4932233;28;89700;-32
2022/07/14 10:41:22;;;;;;;1.53;1.00;;;20.80;99.90;;;;;;4937447;28;89465;-33
2022/07/14 10:44:05;;;;;;;4.97;0.90;;;20.80;99.90;;;;;;4933992;28;88572;-33
2022/07/14 10:46:36;;;;;;;4.03;1.15;;;20.80;99.90;;;;;;4937337;28;90709;-34
2022/07/14 10:49:06;;;;;;;5.82;1.27;;;20.80;99.90;;;;;;4936561;28;90700;-31
2022/07/14 10:51:32;;;;;;;2.75;1.05;;;20.90;99.90;;;;;;4937555;28;90779;-34
2022/07/14 10:54:24;;;;;;;2.05;0.77;;;20.90;99.90;;;;;;4937360;28;88405;-32
2022/07/14 10:57:06;;;;;;;1.60;1.02;;;21.00;99.90;;;;;;4937228;28;90180;-31
2022/07/14 10:59:34;;;;;;;2.72;1.13;;;21.00;99.90;;;;;;4936594;28;89673;-33
2022/07/14 11:02:12;;;;;;;1.73;1.23;;;21.10;99.90;;;;;;4935887;28;89423;-33
2022/07/14 11:05:00;;;;;;;1.45;0.88;;;21.10;99.90;;;;;;4937506;28;89127;-32
2022/07/14 11:07:40;;;;;;;1.15;0.90;;;21.00;99.90;;;;;;4937240;28;90550;-31
2022/07/14 11:10:14;;;;;;;1.52;0.85;;;21.00;99.90;;;;;;4936632;28;89621;-30
2022/07/14 11:13:03;;;;;;;4.20;1.38;;;21.10;99.90;;;;;;4936674;28;89137;-32
2022/07/14 11:15:42;;;;;;;3.95;1.15;;;21.10;99.90;;;;;;4933138;28;89133;-31
2022/07/14 11:18:30;;;;;;;3.05;1.10;;;21.20;99.90;;;;;;4937014;28;91653;-31
2022/07/14 11:21:13;;;;;;;3.55;1.40;;;21.10;99.90;;;;;;4937428;28;91573;-32
2022/07/14 11:23:57;;;;;;;3.13;1.48;;;21.00;99.90;;;;;;4936329;28;89781;-32
2022/07/14 11:26:35;;;;;;;3.15;1.52;;;20.90;99.90;;;;;;4911550;28;89018;-32
2022/07/14 11:29:02;;;;;;;2.07;1.83;;;20.90;99.90;;;;;;4936495;28;90247;-32
2022/07/14 11:31:45;;;;;;;5.03;2.05;;;20.90;99.90;;;;;;4937045;28;88862;-31
2022/07/14 11:37:12;;;;;;;2.38;1.00;;;20.70;99.90;;;;;;4912888;28;90012;-32
2022/07/14 11:39:42;;;;;;;13.97;2.00;;;20.80;99.90;;;;;;4937103;28;89105;-31
2022/07/14 11:42:16;;;;;;;1.33;1.00;;;20.80;99.90;;;;;;4939936;28;91315;-32
2022/07/14 11:44:42;;;;;;;1.40;0.68;;;20.80;99.90;;;;;;4939271;28;90033;-34
2022/07/14 11:47:09;;;;;;;5.47;1.10;;;20.80;99.90;;;;;;4940106;28;88762;-33
2022/07/14 11:49:36;;;;;;;7.47;0.90;;;20.80;99.90;;;;;;4939690;28;90151;-31
2022/07/14 11:52:04;;;;;;;1.37;0.90;;;20.80;99.90;;;;;;4939314;28;89863;-35
2022/07/14 11:54:31;;;;;;;6.60;1.60;;;20.80;99.90;;;;;;4940037;28;90163;-33
2022/07/14 11:57:06;;;;;;;7.93;1.00;;;20.70;99.90;;;;;;4940311;28;90119;-34
2022/07/14 11:59:33;;;;;;;5.55;1.20;;;20.80;99.90;;;;;;4939331;28;89123;-31
2022/07/14 12:02:08;;;;;;;1.37;1.23;;;20.80;99.90;;;;;;4939165;28;89679;-37
2022/07/14 12:04:34;;;;;;;5.00;1.42;;;20.90;99.90;;;;;;4939317;28;89350;-32
2022/07/14 12:07:00;;;;;;;2.13;1.02;;;20.90;99.90;;;;;;4965771;23;89917;-30
2022/07/14 12:09:35;;;;;;;4.10;1.05;;;21.00;99.90;;;;;;4920372;28;91760;-32
2022/07/14 12:12:01;;;;;;;11.40;1.90;;;21.00;99.90;;;;;;4919472;28;90085;-32
2022/07/14 12:14:27;;;;;;;5.88;1.10;;;21.00;99.90;;;;;;4919882;28;89606;-34
2022/07/14 12:16:53;;;;;;;4.45;1.05;;;21.00;99.90;;;;;;4920453;28;88516;-33
2022/07/14 12:19:32;;;;;;;5.47;1.85;;;21.30;99.90;;;;;;4919514;28;89334;-31
2022/07/14 12:22:00;;;;;;;4.78;1.50;;;21.60;99.90;;;;;;4919678;28;89626;-31
2022/07/14 12:24:26;;;;;;;2.58;1.25;;;21.90;99.90;;;;;;4919743;28;89845;-31
2022/07/14 12:26:55;;;;;;;0.80;0.80;;;22.10;99.90;;;;;;4920500;28;88780;-34
2022/07/14 12:29:22;;;;;;;3.03;1.20;;;22.20;99.90;;;;;;4919361;28;90767;-33
2022/07/14 12:31:47;;;;;;;1.45;0.77;;;22.40;99.90;;;;;;4919474;28;91107;-31
2022/07/14 12:34:15;;;;;;;12.95;2.28;;;22.30;99.90;;;;;;4919096;28;90787;-35
2022/07/14 12:36:41;;;;;;;1.05;0.70;;;22.30;99.90;;;;;;4920128;28;89025;-33
2022/07/14 12:39:09;;;;;;;1.65;0.68;;;22.10;99.90;;;;;;4919412;28;90129;-34
2022/07/14 12:41:37;;;;;;;1.88;1.52;;;21.80;99.90;;;;;;4919903;28;89099;-31
2022/07/14 12:44:06;;;;;;;;;;;21.70;99.90;;;;;;4919979;28;90747;-32
2022/07/14 12:46:32;;;;;;;2.35;1.52;;;21.60;99.90;;;;;;4921599;28;89153;-32
2022/07/14 12:49:00;;;;;;;4.50;0.98;;;21.70;99.90;;;;;;4919277;28;91748;-32
2022/07/14 12:51:40;;;;;;;1.38;1.27;;;21.70;99.90;;;;;;4919051;28;88583;-31
2022/07/14 12:54:17;;;;;;;1.42;1.23;;;21.80;99.90;;;;;;4918410;28;89803;-30
2022/07/14 12:56:53;;;;;;;10.35;1.70;;;21.70;99.90;;;;;;4927031;28;88381;-33
2022/07/14 12:59:28;;;;;;;4.70;1.38;;;21.70;99.90;;;;;;4932950;28;90242;-32
2022/07/14 13:02:09;;;;;;;5.05;1.38;;;21.60;99.90;;;;;;4932909;28;89932;-31
2022/07/14 13:04:46;;;;;;;3.97;1.00;;;21.40;99.90;;;;;;4928381;28;89052;-31